Airfield :
LOGIN :

Register | Disclaimer

   EN    FR    IT 

 










Legend :    VFR   Marginal VFR   IFR   Intensive IFR   Very Intensive IFR
Visi :
Ceiling :
>= 8 km
>= 3000ft
5 to 8 km
1000 to 3000 ft
1500m to 5 km
500 to 1000 ft
800 to 1500m
200 to 500 ft
< 800m
< 200 ft
Symbols :   Thunderstorms  Fog  Heavy snow  Heavy precipitations  Wind > 20 kt
SIGMETs :     Misc.  Thunderstorms  Icing  Turbulence  Mountain Waves  Volcanic Ashes






- Airport Elevation : 56 ft
- IATA code : BZR


LFMU - Beziers / Vias

CURRENT METAR :
  • 230200Z AUTO 36012KT CAVOK 12/M03 Q1022 NOSIG

EXPIRED METARs :
  • 230130Z AUTO 35011KT CAVOK 11/M01 Q1022 NOSIG
  • 230100Z AUTO 29006KT CAVOK 09/02 Q1022 NOSIG
  • 230030Z AUTO 31008KT 9999 NCD 10/03 Q1022 NOSIG
  • 230000Z AUTO VRB02KT CAVOK 08/04 Q1022 NOSIG
  • 222330Z AUTO VRB02KT CAVOK 09/06 Q1022 NOSIG
  • 222300Z AUTO 30004KT 270V330 CAVOK 09/06 Q1022 NOSIG

TAF TAF LFMU
Valid from the 22 at 15:00 until the 23 at 15:00 UTC


221400Z 2215/2315 32015KT CAVOK
TEMPO 2215/2218 32015G25KT
BECMG 2221/2223 VRB03KT
ATIS : +33 4 67 90 88 88



MET'MAP, your aeronautical weather chart ! - Copyright ORBIFLY December 2007 - Disclaimer

ORBIFLY MET'MAP TEAM :

Programming & Development : Alexandra Zaïnal
Concept & original design : Baudouin d'Aumeries
Assistance for programming : Marc-Olivier Méhu
Technical & hardware support : Manuel Goepfert

Contact : metmap@orbifly.com




SOURCES & CREDITS :

   NOAA